createdAt,value
2019-03-23T00:02:08.255Z,102396.98
2019-03-23T00:04:38.782Z,102394.84
2019-03-23T00:07:09.436Z,102384.91
2019-03-23T00:09:39.958Z,102388.09
2019-03-23T00:12:10.503Z,102381.93
2019-03-23T00:14:40.957Z,102374.75
2019-03-23T00:17:11.438Z,102374.56
2019-03-23T00:19:41.888Z,102371.09
2019-03-23T00:22:12.378Z,102376.28
2019-03-23T00:24:42.987Z,102368.86
2019-03-23T00:27:13.540Z,102366.80
2019-03-23T00:29:44.075Z,102356.52
2019-03-23T00:32:14.642Z,102349.14
2019-03-23T00:34:45.163Z,102348.44
2019-03-23T00:37:15.645Z,102349.66
2019-03-23T00:39:46.193Z,102342.43
2019-03-23T00:42:17.009Z,102341.97
2019-03-23T00:44:47.543Z,102341.31
2019-03-23T00:47:19.101Z,102336.69
2019-03-23T00:49:49.549Z,102329.72
2019-03-23T00:52:20.119Z,102331.66
2019-03-23T00:54:50.552Z,102329.45
2019-03-23T00:57:21.354Z,102323.05
2019-03-23T00:59:51.867Z,102317.63
2019-03-23T01:02:22.429Z,102317.64
2019-03-23T01:04:53.439Z,102311.74
2019-03-23T01:07:23.972Z,102311.63
2019-03-23T01:09:55.434Z,102307.61
2019-03-23T01:12:25.939Z,102302.79
2019-03-23T01:14:56.544Z,102303.98
2019-03-23T01:17:27.014Z,102296.77
2019-03-23T01:19:57.603Z,102295.36
2019-03-23T01:22:28.353Z,102293.59
2019-03-23T01:24:58.811Z,102290.22
2019-03-23T01:27:29.360Z,102291.64
2019-03-23T01:29:59.891Z,102286.52
2019-03-23T01:32:30.553Z,102289.38
2019-03-23T01:35:01.154Z,102286.16
2019-03-23T01:37:31.797Z,102269.94
2019-03-23T01:40:02.389Z,102273.70
2019-03-23T01:42:32.936Z,102272.05
2019-03-23T01:45:04.306Z,102277.25
2019-03-23T01:47:34.856Z,102276.50
2019-03-23T01:50:08.569Z,102276.26
2019-03-23T01:52:39.149Z,102286.63
2019-03-23T01:55:09.692Z,102277.80
2019-03-23T01:57:41.383Z,102281.82
2019-03-23T02:00:12.959Z,102281.33
2019-03-23T02:02:43.487Z,102280.67
2019-03-23T02:05:14.011Z,102281.46
2019-03-23T02:07:44.485Z,102279.78
2019-03-23T02:10:15.144Z,102275.23
2019-03-23T02:12:45.703Z,102270.98
2019-03-23T02:15:16.149Z,102265.94
2019-03-23T02:17:46.623Z,102262.34
2019-03-23T02:20:17.068Z,102259.26
2019-03-23T02:22:47.664Z,102261.98
2019-03-23T02:25:18.198Z,102257.55
2019-03-23T02:27:50.155Z,102259.77
2019-03-23T02:30:20.612Z,102256.80
2019-03-23T02:32:51.170Z,102261.44
2019-03-23T02:35:21.614Z,102263.14
2019-03-23T02:37:52.167Z,102254.34
2019-03-23T02:40:22.670Z,102262.36
2019-03-23T02:42:53.173Z,102257.18
2019-03-23T02:45:23.687Z,102251.63
2019-03-23T02:47:55.244Z,102261.73
2019-03-23T02:50:25.755Z,102264.20
2019-03-23T02:52:56.367Z,102257.48
2019-03-23T02:55:26.904Z,102257.48
2019-03-23T02:57:57.400Z,102254.02
2019-03-23T03:00:27.856Z,102248.70
2019-03-23T03:02:58.481Z,102251.55
2019-03-23T03:05:29.009Z,102255.30
2019-03-23T03:07:59.496Z,102259.84
2019-03-23T03:10:38.082Z,102260.77
2019-03-23T03:13:08.714Z,102257.37
2019-03-23T03:15:40.807Z,102249.11
2019-03-23T03:18:11.380Z,102249.61
2019-03-23T03:20:42.921Z,102248.58
2019-03-23T03:23:14.574Z,102245.61
2019-03-23T03:25:45.093Z,102237.72
2019-03-23T03:28:15.555Z,102241.97
2019-03-23T03:30:46.090Z,102241.22
2019-03-23T03:33:16.654Z,102230.86
2019-03-23T03:35:47.132Z,102237.33
2019-03-23T03:38:17.619Z,102239.28
2019-03-23T03:40:48.149Z,102233.72
2019-03-23T03:43:18.700Z,102237.06
2019-03-23T03:45:49.139Z,102229.72
2019-03-23T03:48:19.684Z,102232.15
2019-03-23T03:50:50.204Z,102233.69
2019-03-23T03:53:20.792Z,102231.27
2019-03-23T03:55:51.317Z,102224.25
2019-03-23T03:58:21.826Z,102221.53
2019-03-23T04:00:52.288Z,102231.91
2019-03-23T04:03:22.762Z,102228.91
2019-03-23T04:05:53.218Z,102231.23
2019-03-23T04:08:23.688Z,102224.14
2019-03-23T04:10:54.205Z,102220.37
2019-03-23T04:13:24.786Z,102219.45
2019-03-23T04:15:55.397Z,102220.75
2019-03-23T04:18:25.886Z,102219.20
2019-03-23T04:20:56.398Z,102211.95
2019-03-23T04:23:27.960Z,102216.63
2019-03-23T04:25:58.388Z,102216.37
2019-03-23T04:28:28.968Z,102213.78
2019-03-23T04:30:59.496Z,102213.77
2019-03-23T04:33:30.371Z,102216.48
2019-03-23T04:36:00.999Z,102213.01
2019-03-23T04:38:31.649Z,102205.51
2019-03-23T04:41:02.102Z,102205.25
2019-03-23T04:43:32.681Z,102201.99
2019-03-23T04:46:03.195Z,102198.24
2019-03-23T04:48:33.771Z,102195.16
2019-03-23T04:51:04.463Z,102198.27
2019-03-23T04:53:34.973Z,102186.88
2019-03-23T04:56:05.541Z,102189.22
2019-03-23T04:58:36.192Z,102186.89
2019-03-23T05:01:06.765Z,102198.52
2019-03-23T05:03:37.216Z,102190.11
2019-03-23T05:06:07.680Z,102190.48
2019-03-23T05:08:38.270Z,102189.72
2019-03-23T05:11:08.731Z,102184.17
2019-03-23T05:13:39.191Z,102185.31
2019-03-23T05:16:09.820Z,102180.52
2019-03-23T05:18:40.561Z,102182.48
2019-03-23T05:21:11.071Z,102187.37
2019-03-23T05:23:42.612Z,102184.03
2019-03-23T05:26:13.290Z,102181.15
2019-03-23T05:28:43.727Z,102192.00
2019-03-23T05:31:14.300Z,102186.03
2019-03-23T05:33:44.911Z,102183.69
2019-03-23T05:36:15.646Z,102183.67
2019-03-23T05:38:46.160Z,102182.37
2019-03-23T05:41:16.776Z,102178.47
2019-03-23T05:43:47.237Z,102181.93
2019-03-23T05:46:19.136Z,102179.54
2019-03-23T05:48:49.620Z,102179.33
2019-03-23T05:51:20.145Z,102180.98
2019-03-23T05:53:50.599Z,102181.47
2019-03-23T05:56:21.207Z,102181.98
2019-03-23T05:58:51.858Z,102170.80
2019-03-23T06:01:22.461Z,102172.95
2019-03-23T06:03:53.080Z,102173.04
2019-03-23T06:06:23.606Z,102171.80
2019-03-23T06:08:55.382Z,102170.18
2019-03-23T06:11:26.140Z,102166.45
2019-03-23T06:13:56.618Z,102165.13
2019-03-23T06:16:27.207Z,102158.64
2019-03-23T06:18:57.729Z,102158.67
2019-03-23T06:21:28.323Z,102155.15
2019-03-23T06:23:58.896Z,102150.81
2019-03-23T06:26:29.492Z,102150.73
2019-03-23T06:28:59.941Z,102144.08
2019-03-23T06:31:30.386Z,102142.57
2019-03-23T06:34:00.842Z,102139.52
2019-03-23T06:36:31.427Z,102138.69
2019-03-23T06:39:05.734Z,102138.34
2019-03-23T06:41:34.264Z,102137.15
2019-03-23T06:44:04.919Z,102141.29
2019-03-23T06:46:35.566Z,102133.63
2019-03-23T06:49:06.107Z,102132.07
2019-03-23T06:51:36.704Z,102133.62
2019-03-23T06:54:07.477Z,102134.81
2019-03-23T06:56:37.946Z,102129.95
2019-03-23T06:59:08.479Z,102123.45
2019-03-23T07:01:39.106Z,102119.66
2019-03-23T07:04:10.089Z,102123.56
2019-03-23T07:06:40.675Z,102123.53
2019-03-23T07:09:16.169Z,102130.77
2019-03-23T07:11:43.416Z,102131.15
2019-03-23T07:14:14.969Z,102132.44
2019-03-23T07:16:46.118Z,102125.97
2019-03-23T07:19:16.675Z,102121.63
2019-03-23T07:21:47.308Z,102110.24
2019-03-23T07:24:17.914Z,102106.30
2019-03-23T07:26:48.526Z,102104.36
2019-03-23T07:29:19.114Z,102100.30
2019-03-23T07:31:49.676Z,102099.24
2019-03-23T07:34:20.215Z,102098.88
2019-03-23T07:36:50.829Z,102099.36
2019-03-23T07:39:28.018Z,102096.45
2019-03-23T07:41:53.625Z,102087.91
2019-03-23T07:44:24.158Z,102071.85
2019-03-23T07:46:54.651Z,102072.23
2019-03-23T07:49:25.103Z,102076.84
2019-03-23T07:51:55.725Z,102077.93
2019-03-23T07:54:29.395Z,102084.27
2019-03-23T07:57:05.560Z,102080.31
2019-03-23T07:59:37.786Z,102075.81
2019-03-23T08:02:09.675Z,102077.58
2019-03-23T08:04:40.748Z,102079.05
2019-03-23T08:07:11.223Z,102074.56
2019-03-23T08:09:42.210Z,102072.79
2019-03-23T08:12:12.705Z,102063.61
2019-03-23T08:14:43.165Z,102065.52
2019-03-23T08:17:13.718Z,102065.35
2019-03-23T08:19:45.247Z,102064.00
2019-03-23T08:22:15.847Z,102066.22
2019-03-23T08:24:49.037Z,102066.01
2019-03-23T08:27:19.683Z,102060.40
2019-03-23T08:29:50.173Z,102065.38
2019-03-23T08:32:21.298Z,102069.67
2019-03-23T08:34:51.831Z,102060.77
2019-03-23T08:37:22.382Z,102054.19
2019-03-23T08:39:52.993Z,102052.52
2019-03-23T08:42:23.547Z,102046.33
2019-03-23T08:44:54.071Z,102053.06
2019-03-23T08:47:24.560Z,102058.41
2019-03-23T08:49:55.085Z,102048.98
2019-03-23T08:52:25.637Z,102054.19
2019-03-23T08:54:56.164Z,102048.88
2019-03-23T08:57:26.722Z,102046.06
2019-03-23T08:59:57.172Z,102051.83
2019-03-23T09:02:28.039Z,102052.11
2019-03-23T09:04:58.620Z,102047.73
2019-03-23T09:07:29.257Z,102046.84
2019-03-23T09:09:59.821Z,102040.41
2019-03-23T09:12:30.665Z,102032.38
2019-03-23T09:15:01.183Z,102031.58
2019-03-23T09:17:31.731Z,102031.45
2019-03-23T09:20:02.242Z,102021.19
2019-03-23T09:22:32.787Z,102025.30
2019-03-23T09:25:03.658Z,102015.38
2019-03-23T09:27:34.218Z,102013.69
2019-03-23T09:30:09.924Z,102015.93
2019-03-23T09:32:40.483Z,102010.89
2019-03-23T09:35:11.002Z,102002.66
2019-03-23T09:37:41.550Z,101995.41
2019-03-23T09:40:12.076Z,101987.46
2019-03-23T09:42:42.642Z,101988.66
2019-03-23T09:45:14.340Z,101989.00
2019-03-23T09:47:45.552Z,101986.02
2019-03-23T09:50:16.084Z,101984.34
2019-03-23T09:52:46.629Z,101986.91
2019-03-23T09:55:17.202Z,101984.38
2019-03-23T09:57:47.696Z,101975.99
2019-03-23T10:00:18.297Z,101974.39
2019-03-23T10:02:48.852Z,101975.43
2019-03-23T10:05:19.344Z,101980.23
2019-03-23T10:07:49.885Z,101978.16
2019-03-23T10:10:21.948Z,101976.70
2019-03-23T10:12:52.701Z,101978.92
2019-03-23T10:15:23.359Z,101975.44
2019-03-23T10:17:53.919Z,101970.80
2019-03-23T10:20:24.507Z,101970.44
2019-03-23T10:22:55.061Z,101969.61
2019-03-23T10:25:25.715Z,101967.66
2019-03-23T10:27:56.399Z,101965.41
2019-03-23T10:30:26.910Z,101961.18
2019-03-23T10:32:57.480Z,101954.95
2019-03-23T10:35:27.940Z,101948.36
2019-03-23T10:37:58.486Z,101951.56
2019-03-23T10:40:32.691Z,101950.28
2019-03-23T10:43:01.202Z,101943.77
2019-03-23T10:45:31.790Z,101944.44
2019-03-23T10:48:02.411Z,101942.42
2019-03-23T10:50:32.921Z,101945.03
2019-03-23T10:53:03.419Z,101943.30
2019-03-23T10:55:33.940Z,101939.33
2019-03-23T10:58:04.477Z,101935.48
2019-03-23T11:00:35.069Z,101934.14
2019-03-23T11:03:05.690Z,101939.41
2019-03-23T11:05:36.328Z,101926.45
2019-03-23T11:08:07.038Z,101929.43
2019-03-23T11:10:41.928Z,101923.39
2019-03-23T11:13:10.822Z,101930.27
2019-03-23T11:15:41.271Z,101935.63
2019-03-23T11:18:11.755Z,101931.08
2019-03-23T11:20:42.263Z,101929.38
2019-03-23T11:23:12.812Z,101925.48
2019-03-23T11:25:43.400Z,101929.21
2019-03-23T11:28:13.962Z,101928.83
2019-03-23T11:30:44.413Z,101919.41
2019-03-23T11:33:16.021Z,101926.27
2019-03-23T11:35:46.564Z,101917.55
2019-03-23T11:38:17.121Z,101912.75
2019-03-23T11:40:52.895Z,101912.33
2019-03-23T11:43:19.947Z,101913.20
2019-03-23T11:45:50.463Z,101911.84
2019-03-23T11:48:21.104Z,101907.58
2019-03-23T11:50:51.634Z,101912.29
2019-03-23T11:53:22.178Z,101905.79
2019-03-23T11:55:52.696Z,101903.75
2019-03-23T11:58:23.316Z,101904.83
2019-03-23T12:00:53.752Z,101894.02
2019-03-23T12:03:24.225Z,101886.21
2019-03-23T12:05:54.673Z,101873.80
2019-03-23T12:08:25.226Z,101880.14
2019-03-23T12:11:02.824Z,101868.83
2019-03-23T12:13:29.043Z,101866.63
2019-03-23T12:15:59.494Z,101868.98
2019-03-23T12:18:29.993Z,101869.27
2019-03-23T12:21:00.428Z,101865.79
2019-03-23T12:23:30.916Z,101854.84
2019-03-23T12:26:01.410Z,101847.16
2019-03-23T12:28:31.951Z,101843.63
2019-03-23T12:31:02.378Z,101844.20
2019-03-23T12:33:33.023Z,101837.17
2019-03-23T12:36:03.498Z,101832.98
2019-03-23T12:38:34.053Z,101826.17
2019-03-23T12:41:14.348Z,101825.20
2019-03-23T12:43:36.708Z,101825.05
2019-03-23T12:46:07.148Z,101815.63
2019-03-23T12:48:38.777Z,101814.49
2019-03-23T12:51:09.217Z,101815.97
2019-03-23T12:53:39.706Z,101808.24
2019-03-23T12:56:10.147Z,101814.84
2019-03-23T12:58:40.645Z,101810.47
2019-03-23T13:01:11.077Z,101804.40
2019-03-23T13:03:41.554Z,101802.48
2019-03-23T13:06:12.066Z,101803.91
2019-03-23T13:08:42.543Z,101798.95
2019-03-23T13:11:23.090Z,101791.20
2019-03-23T13:13:46.386Z,101787.47
2019-03-23T13:16:16.846Z,101791.48
2019-03-23T13:18:47.341Z,101773.79
2019-03-23T13:21:17.786Z,101774.06
2019-03-23T13:23:48.303Z,101779.25
2019-03-23T13:26:18.828Z,101777.27
2019-03-23T13:28:49.306Z,101764.30
2019-03-23T13:31:19.830Z,101762.72
2019-03-23T13:33:51.489Z,101764.47
2019-03-23T13:36:21.973Z,101762.82
2019-03-23T13:38:52.450Z,101765.87
2019-03-23T13:41:23.046Z,101766.17
2019-03-23T13:43:53.545Z,101759.86
2019-03-23T13:46:25.068Z,101751.05
2019-03-23T13:48:55.760Z,101746.70
2019-03-23T13:51:26.276Z,101746.39
2019-03-23T13:53:58.002Z,101743.48
2019-03-23T13:56:28.534Z,101742.86
2019-03-23T13:58:59.276Z,101738.01
2019-03-23T14:01:29.715Z,101741.50
2019-03-23T14:04:00.356Z,101732.27
2019-03-23T14:06:30.795Z,101736.87
2019-03-23T14:09:01.364Z,101740.69
2019-03-23T14:11:31.997Z,101735.00
2019-03-23T14:14:02.607Z,101732.17
2019-03-23T14:16:33.141Z,101726.95
2019-03-23T14:19:03.706Z,101721.86
2019-03-23T14:21:36.396Z,101721.40
2019-03-23T14:24:06.643Z,101728.49
2019-03-23T14:26:37.173Z,101713.95
2019-03-23T14:29:07.842Z,101719.03
2019-03-23T14:31:38.407Z,101716.16
2019-03-23T14:34:08.935Z,101719.02
2019-03-23T14:36:41.486Z,101717.52
2019-03-23T14:39:12.576Z,101700.78
2019-03-23T14:41:43.129Z,101716.03
2019-03-23T14:44:13.802Z,101708.58
2019-03-23T14:46:44.777Z,101710.49
2019-03-23T14:49:15.415Z,101697.36
2019-03-23T14:51:45.856Z,101699.04
2019-03-23T14:54:16.443Z,101696.88
2019-03-23T14:56:46.966Z,101695.59
2019-03-23T14:59:17.626Z,101694.28
2019-03-23T15:01:48.049Z,101696.17
2019-03-23T15:04:18.526Z,101690.21
2019-03-23T15:06:49.035Z,101699.64
2019-03-23T15:09:19.594Z,101701.52
2019-03-23T15:11:50.107Z,101698.13
2019-03-23T15:14:20.715Z,101693.75
2019-03-23T15:16:51.158Z,101693.17
2019-03-23T15:19:21.797Z,101698.17
2019-03-23T15:21:52.239Z,101694.69
2019-03-23T15:24:22.802Z,101684.92
2019-03-23T15:26:53.332Z,101687.58
2019-03-23T15:29:23.833Z,101690.69
2019-03-23T15:31:54.491Z,101685.79
2019-03-23T15:34:25.098Z,101684.45
2019-03-23T15:36:55.569Z,101680.03
2019-03-23T15:39:26.126Z,101682.18
2019-03-23T15:41:56.549Z,101687.27
2019-03-23T15:44:27.078Z,101680.47
2019-03-23T15:46:57.529Z,101686.52
2019-03-23T15:49:28.131Z,101679.73
2019-03-23T15:51:58.564Z,101681.44
2019-03-23T15:54:29.140Z,101682.61
2019-03-23T15:57:00.461Z,101693.18
2019-03-23T15:59:31.735Z,101703.33
2019-03-23T16:02:02.244Z,101696.28
2019-03-23T16:04:32.798Z,101691.03
2019-03-23T16:07:03.396Z,101692.90
2019-03-23T16:09:33.962Z,101693.59
2019-03-23T16:12:04.427Z,101695.35
2019-03-23T16:14:35.059Z,101712.29
2019-03-23T16:17:06.014Z,101714.30
2019-03-23T16:19:36.585Z,101709.56
2019-03-23T16:22:07.274Z,101712.03
2019-03-23T16:24:37.910Z,101711.95
2019-03-23T16:27:09.575Z,101710.73
2019-03-23T16:29:40.440Z,101709.62
2019-03-23T16:32:10.895Z,101718.19
2019-03-23T16:34:41.524Z,101718.48
2019-03-23T16:37:12.001Z,101731.91
2019-03-23T16:39:42.483Z,101737.73
2019-03-23T16:42:13.007Z,101736.09
2019-03-23T16:44:43.509Z,101744.47
2019-03-23T16:47:14.034Z,101743.45
2019-03-23T16:49:44.664Z,101757.70
2019-03-23T16:52:15.199Z,101760.59
2019-03-23T16:54:45.741Z,101765.63
2019-03-23T16:57:16.188Z,101769.00
2019-03-23T16:59:46.684Z,101770.28
2019-03-23T17:02:17.211Z,101766.56
2019-03-23T17:04:47.843Z,101782.04
2019-03-23T17:07:18.377Z,101783.23
2019-03-23T17:09:48.915Z,101785.82
2019-03-23T17:12:20.427Z,101786.25
2019-03-23T17:14:50.898Z,101794.58
2019-03-23T17:17:21.480Z,101808.35
2019-03-23T17:19:52.102Z,101810.02
2019-03-23T17:22:22.574Z,101810.92
2019-03-23T17:24:53.170Z,101823.22
2019-03-23T17:27:23.715Z,101827.90
2019-03-23T17:29:54.337Z,101829.38
2019-03-23T17:32:24.849Z,101842.40
2019-03-23T17:34:55.607Z,101846.87
2019-03-23T17:37:26.063Z,101855.41
2019-03-23T17:39:56.625Z,101863.16
2019-03-23T17:42:27.210Z,101870.19
2019-03-23T17:44:57.831Z,101871.38
2019-03-23T17:47:28.539Z,101880.66
2019-03-23T17:50:00.378Z,101885.29
2019-03-23T17:52:30.905Z,101892.10
2019-03-23T17:55:01.391Z,101897.12
2019-03-23T17:57:33.012Z,101899.56
2019-03-23T18:00:08.659Z,101904.52
2019-03-23T18:02:40.314Z,101906.64
2019-03-23T18:05:12.202Z,101906.57
2019-03-23T18:07:43.011Z,101917.49
2019-03-23T18:10:13.560Z,101911.80
2019-03-23T18:12:44.169Z,101929.13
2019-03-23T18:15:14.788Z,101937.52
2019-03-23T18:17:45.428Z,101934.39
2019-03-23T18:20:15.982Z,101936.58
2019-03-23T18:22:46.575Z,101941.42
2019-03-23T18:25:17.061Z,101939.60
2019-03-23T18:27:48.823Z,101951.50
2019-03-23T18:30:40.254Z,101953.67
2019-03-23T18:33:10.706Z,101959.41
2019-03-23T18:35:41.259Z,101957.61
2019-03-23T18:38:11.772Z,101956.63
2019-03-23T18:40:42.257Z,101953.70
2019-03-23T18:43:12.686Z,101961.17
2019-03-23T18:45:43.392Z,101967.33
2019-03-23T18:48:13.944Z,101973.88
2019-03-23T18:50:44.411Z,101965.44
2019-03-23T18:53:14.978Z,101973.14
2019-03-23T18:55:45.556Z,101981.59
2019-03-23T18:58:16.070Z,101977.42
2019-03-23T19:00:46.651Z,101984.05
2019-03-23T19:03:17.099Z,101986.51
2019-03-23T19:05:47.657Z,101990.52
2019-03-23T19:08:18.268Z,101995.31
2019-03-23T19:10:48.802Z,102002.05
2019-03-23T19:13:19.259Z,102001.89
2019-03-23T19:15:49.806Z,102008.34
2019-03-23T19:18:20.334Z,102012.41
2019-03-23T19:20:50.811Z,102015.92
2019-03-23T19:23:21.377Z,102017.38
2019-03-23T19:25:52.098Z,102028.73
2019-03-23T19:28:22.630Z,102032.97
2019-03-23T19:30:53.290Z,102030.92
2019-03-23T19:33:23.955Z,102038.68
2019-03-23T19:35:54.479Z,102039.09
2019-03-23T19:38:24.960Z,102044.77
2019-03-23T19:40:55.498Z,102046.22
2019-03-23T19:43:26.038Z,102042.21
2019-03-23T19:45:56.496Z,102043.18
2019-03-23T19:48:27.050Z,102043.40
2019-03-23T19:50:57.693Z,102050.73
2019-03-23T19:53:28.246Z,102050.16
2019-03-23T19:55:58.763Z,102056.60
2019-03-23T19:58:29.243Z,102060.66
2019-03-23T20:00:59.702Z,102059.74
2019-03-23T20:03:30.356Z,102064.06
2019-03-23T20:06:00.806Z,102061.80
2019-03-23T20:08:32.354Z,102070.98
2019-03-23T20:11:02.869Z,102069.37
2019-03-23T20:13:33.365Z,102067.67
2019-03-23T20:16:03.894Z,102069.75
2019-03-23T20:18:34.436Z,102064.99
2019-03-23T20:21:04.887Z,102070.34
2019-03-23T20:23:35.409Z,102068.58
2019-03-23T20:26:05.898Z,102072.70
2019-03-23T20:28:36.467Z,102085.46
2019-03-23T20:31:07.098Z,102076.02
2019-03-23T20:33:37.708Z,102092.44
2019-03-23T20:36:08.232Z,102088.06
2019-03-23T20:38:39.274Z,102095.19
2019-03-23T20:41:09.725Z,102105.05
2019-03-23T20:43:40.196Z,102103.07
2019-03-23T20:46:13.023Z,102101.13
2019-03-23T20:48:42.978Z,102093.23
2019-03-23T20:51:13.883Z,102100.29
2019-03-23T20:53:44.684Z,102101.45
2019-03-23T20:56:23.678Z,102099.66
2019-03-23T20:58:57.356Z,102099.95
2019-03-23T21:01:27.885Z,102097.44
2019-03-23T21:03:58.359Z,102100.29
2019-03-23T21:06:28.868Z,102104.20
2019-03-23T21:08:59.706Z,102098.89
2019-03-23T21:11:30.231Z,102095.97
2019-03-23T21:14:00.777Z,102089.88
2019-03-23T21:16:31.282Z,102098.39
2019-03-23T21:19:01.751Z,102105.42
2019-03-23T21:21:32.271Z,102102.64
2019-03-23T21:24:02.818Z,102109.36
2019-03-23T21:26:33.311Z,102111.59
2019-03-23T21:29:03.854Z,102108.98
2019-03-23T21:31:34.383Z,102104.54
2019-03-23T21:34:04.860Z,102107.05
2019-03-23T21:36:36.367Z,102107.16
2019-03-23T21:39:07.473Z,102107.78
2019-03-23T21:41:37.991Z,102108.31
2019-03-23T21:44:08.625Z,102113.83
2019-03-23T21:46:39.155Z,102110.40
2019-03-23T21:49:09.716Z,102103.98
2019-03-23T21:51:40.239Z,102111.70
2019-03-23T21:54:10.785Z,102114.45
2019-03-23T21:56:41.313Z,102107.31
2019-03-23T21:59:11.882Z,102114.25
2019-03-23T22:01:42.332Z,102107.92
2019-03-23T22:04:12.859Z,102119.36
2019-03-23T22:06:44.357Z,102120.66
2019-03-23T22:09:14.855Z,102119.45
2019-03-23T22:11:45.419Z,102123.94
2019-03-23T22:14:15.975Z,102119.44
2019-03-23T22:16:46.573Z,102122.47
2019-03-23T22:19:17.113Z,102125.17
2019-03-23T22:21:47.784Z,102121.02
2019-03-23T22:24:18.261Z,102129.66
2019-03-23T22:26:48.724Z,102126.52
2019-03-23T22:29:19.279Z,102131.31
2019-03-23T22:31:49.775Z,102129.29
2019-03-23T22:34:20.250Z,102128.41
2019-03-23T22:36:50.689Z,102137.61
2019-03-23T22:39:21.228Z,102133.05
2019-03-23T22:41:51.741Z,102134.67
2019-03-23T22:44:22.303Z,102133.97
2019-03-23T22:46:52.799Z,102139.16
2019-03-23T22:49:23.354Z,102140.04
2019-03-23T22:51:54.014Z,102140.34
2019-03-23T22:54:24.570Z,102142.59
2019-03-23T22:56:55.057Z,102146.18
2019-03-23T22:59:25.572Z,102151.81
2019-03-23T23:01:56.206Z,102153.08
2019-03-23T23:04:26.743Z,102158.03
2019-03-23T23:06:57.254Z,102158.81
2019-03-23T23:09:27.796Z,102156.84
2019-03-23T23:11:58.247Z,102160.11
2019-03-23T23:14:28.713Z,102157.83
2019-03-23T23:16:59.206Z,102161.58
2019-03-23T23:19:29.818Z,102163.86
2019-03-23T23:22:01.667Z,102168.85
2019-03-23T23:24:32.198Z,102161.39
2019-03-23T23:27:02.717Z,102161.73
2019-03-23T23:29:33.252Z,102158.75
2019-03-23T23:32:03.764Z,102164.54
2019-03-23T23:34:34.368Z,102153.81
2019-03-23T23:37:05.008Z,102158.97
2019-03-23T23:39:35.732Z,102154.32
2019-03-23T23:42:06.248Z,102157.51
2019-03-23T23:44:37.805Z,102160.88
2019-03-23T23:47:08.383Z,102166.17
2019-03-23T23:49:39.022Z,102170.28
2019-03-23T23:52:09.631Z,102171.75
2019-03-23T23:54:40.169Z,102173.66
2019-03-23T23:57:10.597Z,102173.75
2019-03-23T23:59:41.123Z,102175.54
